sensor_id;sensor_type;location;lat;lon;timestamp;P1;durP1;ratioP1;P2;durP2;ratioP2
1010;SDS011;494;48.744;10.106;2023-11-21T00:04:33;775.50;;;705.87;;
1010;SDS011;494;48.744;10.106;2023-11-21T05:02:08;807.50;;;733.37;;
1010;SDS011;494;48.744;10.106;2023-11-21T05:08:02;817.87;;;741.43;;
1010;SDS011;494;48.744;10.106;2023-11-21T05:10:33;777.63;;;703.97;;
1010;SDS011;494;48.744;10.106;2023-11-21T05:13:05;815.60;;;739.47;;
1010;SDS011;494;48.744;10.106;2023-11-21T05:18:44;742.83;;;675.73;;
1010;SDS011;494;48.744;10.106;2023-11-21T05:30:12;763.37;;;696.03;;
1010;SDS011;494;48.744;10.106;2023-11-21T05:35:43;752.43;;;683.73;;
1010;SDS011;494;48.744;10.106;2023-11-21T05:38:13;765.03;;;694.67;;
1010;SDS011;494;48.744;10.106;2023-11-21T05:52:42;712.57;;;647.23;;
1010;SDS011;494;48.744;10.106;2023-11-21T06:04:31;867.40;;;784.73;;
1010;SDS011;494;48.744;10.106;2023-11-21T06:07:04;734.23;;;668.03;;
1010;SDS011;494;48.744;10.106;2023-11-21T06:21:35;797.67;;;721.70;;
1010;SDS011;494;48.744;10.106;2023-11-21T06:24:29;810.03;;;734.50;;
1010;SDS011;494;48.744;10.106;2023-11-21T08:50:42;828.07;;;745.67;;
1010;SDS011;494;48.744;10.106;2023-11-21T08:53:27;798.20;;;719.53;;
1010;SDS011;494;48.744;10.106;2023-11-21T08:56:04;645.43;;;587.00;;
1010;SDS011;494;48.744;10.106;2023-11-21T08:58:36;722.57;;;654.17;;
1010;SDS011;494;48.744;10.106;2023-11-21T09:01:12;732.43;;;665.77;;
1010;SDS011;494;48.744;10.106;2023-11-21T09:03:43;631.20;;;572.30;;
1010;SDS011;494;48.744;10.106;2023-11-21T09:06:11;686.07;;;621.93;;
1010;SDS011;494;48.744;10.106;2023-11-21T09:11:36;628.50;;;572.57;;
1010;SDS011;494;48.744;10.106;2023-11-21T09:14:06;669.93;;;608.17;;
1010;SDS011;494;48.744;10.106;2023-11-21T09:16:52;646.67;;;589.03;;
1010;SDS011;494;48.744;10.106;2023-11-21T09:22:19;678.53;;;616.33;;
1010;SDS011;494;48.744;10.106;2023-11-21T09:24:48;668.67;;;607.70;;
1010;SDS011;494;48.744;10.106;2023-11-21T09:27:18;581.50;;;528.50;;
1010;SDS011;494;48.744;10.106;2023-11-21T09:32:45;587.57;;;535.30;;
1010;SDS011;494;48.744;10.106;2023-11-21T09:35:18;632.93;;;575.60;;
1010;SDS011;494;48.744;10.106;2023-11-21T09:37:47;625.23;;;568.53;;
1010;SDS011;494;48.744;10.106;2023-11-21T09:40:20;571.80;;;519.53;;
1010;SDS011;494;48.744;10.106;2023-11-21T09:42:54;559.67;;;508.97;;
1010;SDS011;494;48.744;10.106;2023-11-21T09:45:25;624.80;;;567.20;;
1010;SDS011;494;48.744;10.106;2023-11-21T09:47:58;709.53;;;645.03;;
1010;SDS011;494;48.744;10.106;2023-11-21T09:50:31;546.37;;;496.73;;
1010;SDS011;494;48.744;10.106;2023-11-21T09:53:09;758.43;;;690.63;;
1010;SDS011;494;48.744;10.106;2023-11-21T09:55:48;589.57;;;534.43;;
1010;SDS011;494;48.744;10.106;2023-11-21T09:58:27;567.60;;;516.03;;
1010;SDS011;494;48.744;10.106;2023-11-21T10:00:57;665.60;;;604.70;;
1010;SDS011;494;48.744;10.106;2023-11-21T10:03:35;610.47;;;554.50;;
1010;SDS011;494;48.744;10.106;2023-11-21T10:06:07;612.87;;;555.67;;
1010;SDS011;494;48.744;10.106;2023-11-21T10:08:38;660.77;;;600.00;;
1010;SDS011;494;48.744;10.106;2023-11-21T10:11:19;650.17;;;592.07;;
1010;SDS011;494;48.744;10.106;2023-11-21T10:13:52;639.53;;;580.23;;
1010;SDS011;494;48.744;10.106;2023-11-21T10:16:24;765.93;;;695.80;;
1010;SDS011;494;48.744;10.106;2023-11-21T10:18:56;560.83;;;508.60;;
1010;SDS011;494;48.744;10.106;2023-11-21T10:21:38;647.40;;;588.63;;
1010;SDS011;494;48.744;10.106;2023-11-21T10:24:09;665.53;;;605.60;;
1010;SDS011;494;48.744;10.106;2023-11-21T10:26:40;651.13;;;591.40;;
1010;SDS011;494;48.744;10.106;2023-11-21T10:29:19;592.23;;;538.43;;
1010;SDS011;494;48.744;10.106;2023-11-21T10:31:49;608.67;;;553.17;;
1010;SDS011;494;48.744;10.106;2023-11-21T10:34:21;630.63;;;572.83;;
1010;SDS011;494;48.744;10.106;2023-11-21T10:36:51;624.47;;;567.13;;
1010;SDS011;494;48.744;10.106;2023-11-21T10:39:24;656.00;;;596.93;;
1010;SDS011;494;48.744;10.106;2023-11-21T10:41:57;637.97;;;579.97;;
1010;SDS011;494;48.744;10.106;2023-11-21T10:44:29;652.33;;;591.47;;
1010;SDS011;494;48.744;10.106;2023-11-21T10:47:00;616.00;;;559.10;;
1010;SDS011;494;48.744;10.106;2023-11-21T10:49:30;560.17;;;508.23;;
1010;SDS011;494;48.744;10.106;2023-11-21T10:52:00;654.30;;;593.97;;
1010;SDS011;494;48.744;10.106;2023-11-21T10:54:30;620.27;;;564.07;;
1010;SDS011;494;48.744;10.106;2023-11-21T10:57:00;645.57;;;586.37;;
1010;SDS011;494;48.744;10.106;2023-11-21T10:59:30;593.70;;;539.63;;
1010;SDS011;494;48.744;10.106;2023-11-21T11:01:59;669.87;;;610.70;;
1010;SDS011;494;48.744;10.106;2023-11-21T11:04:43;559.23;;;508.77;;
1010;SDS011;494;48.744;10.106;2023-11-21T11:07:19;584.73;;;531.03;;
1010;SDS011;494;48.744;10.106;2023-11-21T11:09:54;620.93;;;564.80;;
1010;SDS011;494;48.744;10.106;2023-11-21T11:12:23;635.97;;;577.93;;
1010;SDS011;494;48.744;10.106;2023-11-21T11:14:53;578.27;;;524.30;;
1010;SDS011;494;48.744;10.106;2023-11-21T11:17:25;638.27;;;579.07;;
1010;SDS011;494;48.744;10.106;2023-11-21T11:19:55;662.20;;;602.33;;
1010;SDS011;494;48.744;10.106;2023-11-21T11:22:29;590.43;;;536.97;;
1010;SDS011;494;48.744;10.106;2023-11-21T11:25:20;806.17;;;731.67;;
1010;SDS011;494;48.744;10.106;2023-11-21T11:28:04;542.73;;;493.57;;
1010;SDS011;494;48.744;10.106;2023-11-21T11:30:46;637.37;;;578.63;;
1010;SDS011;494;48.744;10.106;2023-11-21T11:33:34;677.97;;;615.17;;
1010;SDS011;494;48.744;10.106;2023-11-21T11:36:13;505.63;;;458.90;;
1010;SDS011;494;48.744;10.106;2023-11-21T11:39:04;562.87;;;514.07;;
1010;SDS011;494;48.744;10.106;2023-11-21T11:41:58;471.43;;;429.20;;
1010;SDS011;494;48.744;10.106;2023-11-21T11:44:51;501.70;;;457.87;;
1010;SDS011;494;48.744;10.106;2023-11-21T11:47:23;514.13;;;469.97;;
1010;SDS011;494;48.744;10.106;2023-11-21T11:50:02;427.07;;;389.00;;
1010;SDS011;494;48.744;10.106;2023-11-21T11:52:40;556.87;;;508.53;;
1010;SDS011;494;48.744;10.106;2023-11-21T11:55:13;481.77;;;438.33;;
1010;SDS011;494;48.744;10.106;2023-11-21T11:57:45;442.57;;;403.77;;
1010;SDS011;494;48.744;10.106;2023-11-21T12:00:17;489.43;;;446.10;;
1010;SDS011;494;48.744;10.106;2023-11-21T12:02:52;460.47;;;419.23;;
1010;SDS011;494;48.744;10.106;2023-11-21T12:05:23;569.40;;;519.37;;
1010;SDS011;494;48.744;10.106;2023-11-21T12:07:56;515.57;;;470.37;;
1010;SDS011;494;48.744;10.106;2023-11-21T12:13:25;498.90;;;455.37;;
1010;SDS011;494;48.744;10.106;2023-11-21T12:15:57;546.90;;;499.10;;
1010;SDS011;494;48.744;10.106;2023-11-21T12:18:27;546.00;;;498.23;;
1010;SDS011;494;48.744;10.106;2023-11-21T12:20:57;578.43;;;527.23;;
1010;SDS011;494;48.744;10.106;2023-11-21T12:23:26;601.60;;;548.57;;
1010;SDS011;494;48.744;10.106;2023-11-21T12:25:57;443.20;;;403.13;;
1010;SDS011;494;48.744;10.106;2023-11-21T12:28:27;515.93;;;470.00;;
1010;SDS011;494;48.744;10.106;2023-11-21T12:30:57;551.37;;;502.03;;
1010;SDS011;494;48.744;10.106;2023-11-21T12:33:44;617.77;;;564.80;;
1010;SDS011;494;48.744;10.106;2023-11-21T12:36:13;605.27;;;551.57;;
1010;SDS011;494;48.744;10.106;2023-11-21T12:38:43;495.03;;;450.97;;
1010;SDS011;494;48.744;10.106;2023-11-21T12:41:13;469.73;;;428.23;;
1010;SDS011;494;48.744;10.106;2023-11-21T12:43:46;449.43;;;408.57;;
1010;SDS011;494;48.744;10.106;2023-11-21T12:46:15;659.93;;;601.00;;
1010;SDS011;494;48.744;10.106;2023-11-21T12:48:46;560.00;;;510.90;;
1010;SDS011;494;48.744;10.106;2023-11-21T12:51:17;472.10;;;430.07;;
1010;SDS011;494;48.744;10.106;2023-11-21T12:53:49;541.53;;;493.73;;
1010;SDS011;494;48.744;10.106;2023-11-21T12:56:21;525.07;;;478.57;;
1010;SDS011;494;48.744;10.106;2023-11-21T12:58:53;580.77;;;531.50;;
1010;SDS011;494;48.744;10.106;2023-11-21T13:01:25;577.17;;;527.13;;
1010;SDS011;494;48.744;10.106;2023-11-21T13:03:56;514.60;;;468.97;;
1010;SDS011;494;48.744;10.106;2023-11-21T13:06:26;440.10;;;400.63;;
1010;SDS011;494;48.744;10.106;2023-11-21T13:09:00;515.50;;;470.07;;
1010;SDS011;494;48.744;10.106;2023-11-21T13:14:08;538.00;;;490.17;;
1010;SDS011;494;48.744;10.106;2023-11-21T13:16:41;563.10;;;513.27;;
1010;SDS011;494;48.744;10.106;2023-11-21T13:19:13;590.07;;;537.87;;
1010;SDS011;494;48.744;10.106;2023-11-21T13:21:43;457.73;;;416.80;;
1010;SDS011;494;48.744;10.106;2023-11-21T13:24:12;463.53;;;421.50;;
1010;SDS011;494;48.744;10.106;2023-11-21T13:26:43;445.73;;;405.83;;
1010;SDS011;494;48.744;10.106;2023-11-21T13:29:15;546.37;;;496.87;;
1010;SDS011;494;48.744;10.106;2023-11-21T13:31:46;434.23;;;394.73;;
1010;SDS011;494;48.744;10.106;2023-11-21T13:34:19;524.13;;;478.03;;
1010;SDS011;494;48.744;10.106;2023-11-21T13:36:57;452.63;;;412.47;;
1010;SDS011;494;48.744;10.106;2023-11-21T13:39:27;492.43;;;448.33;;
1010;SDS011;494;48.744;10.106;2023-11-21T13:41:59;672.23;;;614.13;;
1010;SDS011;494;48.744;10.106;2023-11-21T13:44:33;608.33;;;554.73;;
1010;SDS011;494;48.744;10.106;2023-11-21T13:47:06;567.00;;;514.57;;
1010;SDS011;494;48.744;10.106;2023-11-21T13:49:36;507.43;;;461.90;;
1010;SDS011;494;48.744;10.106;2023-11-21T13:52:07;751.40;;;685.60;;
1010;SDS011;494;48.744;10.106;2023-11-21T13:54:42;522.20;;;474.80;;
1010;SDS011;494;48.744;10.106;2023-11-21T13:57:11;423.97;;;386.03;;
1010;SDS011;494;48.744;10.106;2023-11-21T13:59:44;545.10;;;497.10;;
1010;SDS011;494;48.744;10.106;2023-11-21T14:02:13;483.37;;;440.17;;
1010;SDS011;494;48.744;10.106;2023-11-21T14:05:00;605.47;;;551.13;;
1010;SDS011;494;48.744;10.106;2023-11-21T14:07:36;599.33;;;545.20;;
1010;SDS011;494;48.744;10.106;2023-11-21T14:10:06;595.50;;;543.50;;
1010;SDS011;494;48.744;10.106;2023-11-21T14:12:41;475.17;;;431.63;;
1010;SDS011;494;48.744;10.106;2023-11-21T14:15:13;491.57;;;446.47;;
1010;SDS011;494;48.744;10.106;2023-11-21T14:17:46;474.27;;;432.27;;
1010;SDS011;494;48.744;10.106;2023-11-21T14:20:18;411.73;;;373.63;;
1010;SDS011;494;48.744;10.106;2023-11-21T14:23:16;672.63;;;612.70;;
1010;SDS011;494;48.744;10.106;2023-11-21T14:26:00;584.30;;;531.23;;
1010;SDS011;494;48.744;10.106;2023-11-21T14:28:31;482.10;;;438.97;;
1010;SDS011;494;48.744;10.106;2023-11-21T15:54:31;631.53;;;571.33;;
1010;SDS011;494;48.744;10.106;2023-11-21T16:00:04;646.57;;;586.17;;
1010;SDS011;494;48.744;10.106;2023-11-21T16:07:15;750.13;;;682.80;;
1010;SDS011;494;48.744;10.106;2023-11-21T19:05:16;852.73;;;774.10;;
1010;SDS011;494;48.744;10.106;2023-11-21T19:07:46;738.80;;;668.13;;
1010;SDS011;494;48.744;10.106;2023-11-21T19:10:15;690.43;;;625.57;;
1010;SDS011;494;48.744;10.106;2023-11-21T19:12:45;718.43;;;651.60;;
1010;SDS011;494;48.744;10.106;2023-11-21T19:15:15;775.17;;;700.50;;
1010;SDS011;494;48.744;10.106;2023-11-21T19:17:45;867.40;;;787.53;;
1010;SDS011;494;48.744;10.106;2023-11-21T19:20:16;845.10;;;766.20;;
1010;SDS011;494;48.744;10.106;2023-11-21T19:22:45;709.17;;;640.87;;
1010;SDS011;494;48.744;10.106;2023-11-21T19:25:15;670.30;;;607.13;;
1010;SDS011;494;48.744;10.106;2023-11-21T19:27:45;787.10;;;712.53;;
1010;SDS011;494;48.744;10.106;2023-11-21T19:30:17;720.53;;;651.37;;
1010;SDS011;494;48.744;10.106;2023-11-21T19:32:46;728.53;;;658.00;;
1010;SDS011;494;48.744;10.106;2023-11-21T19:35:17;715.03;;;647.43;;
1010;SDS011;494;48.744;10.106;2023-11-21T19:37:47;770.73;;;695.43;;
1010;SDS011;494;48.744;10.106;2023-11-21T19:40:19;780.93;;;703.53;;
1010;SDS011;494;48.744;10.106;2023-11-21T19:42:49;689.80;;;622.77;;
1010;SDS011;494;48.744;10.106;2023-11-21T19:45:20;741.97;;;669.60;;
1010;SDS011;494;48.744;10.106;2023-11-21T19:47:53;680.50;;;615.03;;
1010;SDS011;494;48.744;10.106;2023-11-21T19:50:25;780.73;;;705.43;;
1010;SDS011;494;48.744;10.106;2023-11-21T19:52:55;711.20;;;642.47;;
1010;SDS011;494;48.744;10.106;2023-11-21T19:55:27;763.33;;;689.53;;
1010;SDS011;494;48.744;10.106;2023-11-21T19:57:59;690.27;;;625.07;;
1010;SDS011;494;48.744;10.106;2023-11-21T20:00:30;729.80;;;659.80;;
1010;SDS011;494;48.744;10.106;2023-11-21T20:03:02;697.03;;;629.30;;
1010;SDS011;494;48.744;10.106;2023-11-21T20:05:33;672.47;;;608.60;;
1010;SDS011;494;48.744;10.106;2023-11-21T20:08:04;732.10;;;659.53;;
1010;SDS011;494;48.744;10.106;2023-11-21T20:10:39;707.37;;;640.67;;
1010;SDS011;494;48.744;10.106;2023-11-21T20:13:12;689.53;;;621.90;;
1010;SDS011;494;48.744;10.106;2023-11-21T20:15:43;652.43;;;588.73;;
1010;SDS011;494;48.744;10.106;2023-11-21T20:18:17;725.70;;;655.70;;
1010;SDS011;494;48.744;10.106;2023-11-21T20:20:51;723.13;;;653.30;;
1010;SDS011;494;48.744;10.106;2023-11-21T20:23:20;748.07;;;677.53;;
1010;SDS011;494;48.744;10.106;2023-11-21T20:25:53;798.47;;;723.47;;
1010;SDS011;494;48.744;10.106;2023-11-21T20:28:25;627.57;;;567.43;;
1010;SDS011;494;48.744;10.106;2023-11-21T20:30:58;750.73;;;681.17;;
1010;SDS011;494;48.744;10.106;2023-11-21T20:33:29;735.20;;;664.40;;
1010;SDS011;494;48.744;10.106;2023-11-21T20:36:02;673.70;;;608.17;;
1010;SDS011;494;48.744;10.106;2023-11-21T20:38:33;721.77;;;651.83;;
1010;SDS011;494;48.744;10.106;2023-11-21T20:41:03;722.43;;;653.73;;
1010;SDS011;494;48.744;10.106;2023-11-21T20:43:39;742.23;;;670.23;;
1010;SDS011;494;48.744;10.106;2023-11-21T20:46:13;701.97;;;634.20;;
1010;SDS011;494;48.744;10.106;2023-11-21T20:48:50;659.63;;;596.97;;
1010;SDS011;494;48.744;10.106;2023-11-21T20:51:25;681.67;;;617.60;;
1010;SDS011;494;48.744;10.106;2023-11-21T20:53:58;746.73;;;676.27;;
1010;SDS011;494;48.744;10.106;2023-11-21T20:56:31;731.53;;;661.33;;
1010;SDS011;494;48.744;10.106;2023-11-21T20:59:03;720.60;;;651.87;;
1010;SDS011;494;48.744;10.106;2023-11-21T21:01:35;785.07;;;708.37;;
1010;SDS011;494;48.744;10.106;2023-11-21T21:04:05;695.07;;;629.23;;
1010;SDS011;494;48.744;10.106;2023-11-21T21:06:49;713.57;;;644.83;;
1010;SDS011;494;48.744;10.106;2023-11-21T21:09:22;677.80;;;612.80;;
1010;SDS011;494;48.744;10.106;2023-11-21T21:11:54;758.77;;;689.70;;
1010;SDS011;494;48.744;10.106;2023-11-21T21:14:25;795.20;;;715.80;;
1010;SDS011;494;48.744;10.106;2023-11-21T21:16:58;647.07;;;583.97;;
1010;SDS011;494;48.744;10.106;2023-11-21T21:19:32;826.07;;;746.77;;
1010;SDS011;494;48.744;10.106;2023-11-21T21:22:04;698.17;;;631.13;;
1010;SDS011;494;48.744;10.106;2023-11-21T21:24:33;750.13;;;676.93;;
1010;SDS011;494;48.744;10.106;2023-11-21T21:27:03;784.40;;;708.40;;
1010;SDS011;494;48.744;10.106;2023-11-21T21:29:33;797.70;;;719.33;;
1010;SDS011;494;48.744;10.106;2023-11-21T21:32:07;717.60;;;648.33;;
1010;SDS011;494;48.744;10.106;2023-11-21T21:34:38;763.63;;;688.93;;
1010;SDS011;494;48.744;10.106;2023-11-21T21:37:11;791.33;;;715.63;;
1010;SDS011;494;48.744;10.106;2023-11-21T21:39:41;871.83;;;788.37;;
1010;SDS011;494;48.744;10.106;2023-11-21T21:42:12;713.80;;;644.87;;
1010;SDS011;494;48.744;10.106;2023-11-21T21:44:41;876.83;;;794.50;;
1010;SDS011;494;48.744;10.106;2023-11-21T21:47:15;723.10;;;654.53;;
1010;SDS011;494;48.744;10.106;2023-11-21T21:49:46;700.00;;;635.30;;
1010;SDS011;494;48.744;10.106;2023-11-21T21:52:33;788.57;;;711.27;;
1010;SDS011;494;48.744;10.106;2023-11-21T21:55:10;787.53;;;712.17;;
1010;SDS011;494;48.744;10.106;2023-11-21T21:57:43;743.87;;;672.80;;
1010;SDS011;494;48.744;10.106;2023-11-21T22:00:15;710.97;;;642.17;;
1010;SDS011;494;48.744;10.106;2023-11-21T22:02:50;688.13;;;622.77;;
1010;SDS011;494;48.744;10.106;2023-11-21T22:05:35;823.50;;;747.27;;
1010;SDS011;494;48.744;10.106;2023-11-21T22:08:09;667.87;;;603.57;;
1010;SDS011;494;48.744;10.106;2023-11-21T22:10:45;742.67;;;671.27;;
1010;SDS011;494;48.744;10.106;2023-11-21T22:13:16;722.63;;;653.83;;
1010;SDS011;494;48.744;10.106;2023-11-21T22:15:47;728.97;;;662.37;;
1010;SDS011;494;48.744;10.106;2023-11-21T22:18:21;694.83;;;628.70;;
1010;SDS011;494;48.744;10.106;2023-11-21T22:20:57;726.90;;;658.50;;
1010;SDS011;494;48.744;10.106;2023-11-21T22:23:51;720.77;;;652.13;;
1010;SDS011;494;48.744;10.106;2023-11-21T22:26:32;786.63;;;714.47;;
1010;SDS011;494;48.744;10.106;2023-11-21T22:29:08;798.30;;;723.40;;
1010;SDS011;494;48.744;10.106;2023-11-21T22:31:55;718.40;;;650.97;;
1010;SDS011;494;48.744;10.106;2023-11-21T22:34:32;788.07;;;714.90;;
1010;SDS011;494;48.744;10.106;2023-11-21T22:37:07;750.90;;;678.53;;
1010;SDS011;494;48.744;10.106;2023-11-21T22:39:48;730.80;;;660.97;;
1010;SDS011;494;48.744;10.106;2023-11-21T22:42:36;745.23;;;675.37;;
1010;SDS011;494;48.744;10.106;2023-11-21T22:45:24;745.03;;;675.73;;
1010;SDS011;494;48.744;10.106;2023-11-21T22:47:55;685.77;;;619.80;;
1010;SDS011;494;48.744;10.106;2023-11-21T22:50:27;820.90;;;740.80;;
1010;SDS011;494;48.744;10.106;2023-11-21T22:53:00;706.00;;;638.23;;
1010;SDS011;494;48.744;10.106;2023-11-21T22:55:35;753.23;;;679.90;;
1010;SDS011;494;48.744;10.106;2023-11-21T22:58:20;713.10;;;644.97;;
1010;SDS011;494;48.744;10.106;2023-11-21T23:00:53;708.27;;;640.37;;
1010;SDS011;494;48.744;10.106;2023-11-21T23:03:33;682.33;;;615.73;;
1010;SDS011;494;48.744;10.106;2023-11-21T23:06:17;745.27;;;674.50;;
1010;SDS011;494;48.744;10.106;2023-11-21T23:08:53;750.47;;;678.93;;
1010;SDS011;494;48.744;10.106;2023-11-21T23:11:32;781.43;;;706.90;;
1010;SDS011;494;48.744;10.106;2023-11-21T23:14:01;764.30;;;692.00;;
1010;SDS011;494;48.744;10.106;2023-11-21T23:16:35;653.63;;;590.60;;
1010;SDS011;494;48.744;10.106;2023-11-21T23:19:09;737.40;;;668.30;;
1010;SDS011;494;48.744;10.106;2023-11-21T23:21:44;746.73;;;677.17;;
1010;SDS011;494;48.744;10.106;2023-11-21T23:24:25;731.30;;;661.47;;
1010;SDS011;494;48.744;10.106;2023-11-21T23:27:11;744.93;;;673.50;;
1010;SDS011;494;48.744;10.106;2023-11-21T23:29:40;683.33;;;618.20;;
1010;SDS011;494;48.744;10.106;2023-11-21T23:32:15;696.60;;;630.53;;
1010;SDS011;494;48.744;10.106;2023-11-21T23:34:50;708.30;;;642.27;;
1010;SDS011;494;48.744;10.106;2023-11-21T23:37:42;734.37;;;665.20;;
1010;SDS011;494;48.744;10.106;2023-11-21T23:40:25;717.33;;;650.93;;
1010;SDS011;494;48.744;10.106;2023-11-21T23:43:05;759.57;;;686.70;;
1010;SDS011;494;48.744;10.106;2023-11-21T23:45:52;761.70;;;693.50;;
1010;SDS011;494;48.744;10.106;2023-11-21T23:48:30;754.33;;;682.93;;
1010;SDS011;494;48.744;10.106;2023-11-21T23:51:02;735.53;;;664.93;;
1010;SDS011;494;48.744;10.106;2023-11-21T23:53:33;642.60;;;580.13;;
1010;SDS011;494;48.744;10.106;2023-11-21T23:56:07;715.43;;;645.63;;
